Time;durP1;ratioP1;P1;durP2;ratioP2;P2;SDS_P1;SDS_P2;PMS_P1;PMS_P2;Temp;Humidity;BMP_temperature;BMP_pressure;BME280_temperature;BME280_humidity;BME280_pressure;Samples;Min_cycle;Max_cycle;Signal;HPM_P1;HPM_P2
2021/10/20 00:00:29;;;;;;;5.00;2.70;;;17.10;77.90;;;;;;5116096;28;20446;-66
2021/10/20 00:02:57;;;;;;;7.53;2.90;;;17.10;77.90;;;;;;5116036;27;20454;-66
2021/10/20 00:05:24;;;;;;;3.50;2.40;;;17.10;77.90;;;;;;5115553;28;20868;-66
2021/10/20 00:07:51;;;;;;;4.40;2.83;;;17.10;77.90;;;;;;5115913;28;20442;-66
2021/10/20 00:10:20;;;;;;;3.57;3.00;;;17.10;78.00;;;;;;5115865;28;20439;-66
2021/10/20 00:12:48;;;;;;;3.03;2.83;;;17.10;77.90;;;;;;5115814;27;20443;-66
2021/10/20 00:15:18;;;;;;;2.67;2.47;;;17.10;78.10;;;;;;5115659;28;20479;-66
2021/10/20 00:17:45;;;;;;;2.97;2.27;;;17.10;77.90;;;;;;5115970;28;20439;-66
2021/10/20 00:20:17;;;;;;;4.53;2.70;;;17.20;77.90;;;;;;5115691;28;20442;-66
2021/10/20 00:22:44;;;;;;;3.07;2.53;;;17.20;77.60;;;;;;5115722;28;20435;-66
2021/10/20 00:25:12;;;;;;;4.50;2.77;;;17.20;77.70;;;;;;5115143;28;20451;-66
2021/10/20 00:27:39;;;;;;;5.03;2.40;;;17.10;77.60;;;;;;5115480;28;20450;-66
2021/10/20 00:30:08;;;;;;;5.87;3.33;;;17.10;78.00;;;;;;5115154;28;20450;-66
2021/10/20 00:32:35;;;;;;;3.23;2.80;;;17.10;78.90;;;;;;5115471;28;20799;-66
2021/10/20 00:35:02;;;;;;;3.77;3.07;;;17.10;78.00;;;;;;5114840;28;20498;-66
2021/10/20 00:37:30;;;;;;;4.33;3.10;;;17.10;78.00;;;;;;5114999;28;20955;-66
2021/10/20 00:39:56;;;;;;;8.17;3.30;;;17.00;78.20;;;;;;5115288;28;20446;-66
2021/10/20 00:42:24;;;;;;;3.43;3.10;;;17.00;78.20;;;;;;5115230;28;20455;-66
2021/10/20 00:44:52;;;;;;;3.87;3.33;;;17.00;78.50;;;;;;5115121;28;20463;-66
2021/10/20 00:47:21;;;;;;;5.13;3.23;;;17.00;78.50;;;;;;5115064;28;20450;-66
2021/10/20 00:49:48;;;;;;;3.23;2.90;;;16.90;78.60;;;;;;5115082;28;20435;-66
2021/10/20 00:52:16;;;;;;;5.73;3.73;;;17.00;78.60;;;;;;5115085;28;20435;-66
2021/10/20 00:54:44;;;;;;;3.80;3.13;;;17.00;78.30;;;;;;5114526;28;20854;-66
2021/10/20 00:57:13;;;;;;;6.83;2.90;;;16.90;78.80;;;;;;5114958;28;20443;-66
2021/10/20 00:59:41;;;;;;;3.43;2.90;;;16.90;78.80;;;;;;5114565;28;20944;-66
2021/10/20 01:02:08;;;;;;;4.87;3.30;;;16.90;78.60;;;;;;5114850;28;20449;-66
2021/10/20 01:04:35;;;;;;;3.43;3.00;;;16.90;78.70;;;;;;5114767;28;20463;-66
2021/10/20 01:07:03;;;;;;;6.60;2.97;;;16.90;78.50;;;;;;5114532;27;20958;-66
2021/10/20 01:09:29;;;;;;;4.20;3.27;;;16.90;78.20;;;;;;5114380;28;20785;-66
2021/10/20 01:11:58;;;;;;;3.23;2.80;;;16.90;78.40;;;;;;5114390;28;20453;-66
2021/10/20 01:14:27;;;;;;;2.87;2.27;;;16.90;78.70;;;;;;5114521;28;20509;-66
2021/10/20 01:16:55;;;;;;;3.27;2.90;;;16.90;78.50;;;;;;5114267;28;20443;-66
2021/10/20 01:19:22;;;;;;;3.43;2.77;;;16.90;78.80;;;;;;5114593;28;20450;-66
2021/10/20 01:21:52;;;;;;;5.37;2.93;;;16.80;78.70;;;;;;5114532;28;20447;-66
2021/10/20 01:24:20;;;;;;;3.37;2.90;;;16.80;78.90;;;;;;5114266;28;20451;-66
2021/10/20 01:26:47;;;;;;;2.80;2.60;;;16.80;78.80;;;;;;5114435;28;20816;-66
2021/10/20 01:29:14;;;;;;;2.80;2.60;;;16.70;78.60;;;;;;5114444;28;20434;-66
2021/10/20 01:31:45;;;;;;;3.50;3.10;;;16.80;78.80;;;;;;5114493;28;20449;-66
2021/10/20 01:34:12;;;;;;;3.30;3.00;;;16.80;78.80;;;;;;5113998;28;20486;-66
2021/10/20 01:36:39;;;;;;;3.43;2.97;;;16.80;78.80;;;;;;5114297;28;20451;-66
2021/10/20 01:39:08;;;;;;;3.07;2.70;;;16.80;78.80;;;;;;5114260;28;20442;-66
2021/10/20 01:41:36;;;;;;;2.73;2.53;;;16.80;79.00;;;;;;5114220;28;20450;-66
2021/10/20 01:44:03;;;;;;;3.47;3.10;;;16.80;78.60;;;;;;5114100;28;20435;-66
2021/10/20 01:46:31;;;;;;;3.07;2.70;;;16.80;78.70;;;;;;5114160;28;20442;-66
2021/10/20 01:48:57;;;;;;;3.23;3.00;;;16.80;78.80;;;;;;5114169;28;20474;-66
2021/10/20 01:51:24;;;;;;;3.20;2.90;;;16.80;78.50;;;;;;5114189;28;20423;-66
2021/10/20 01:53:51;;;;;;;3.70;2.90;;;16.90;78.80;;;;;;5113650;28;20933;-66
2021/10/20 01:56:19;;;;;;;3.93;3.53;;;16.90;78.60;;;;;;5113947;28;20462;-66
2021/10/20 01:58:47;;;;;;;4.30;3.17;;;16.80;78.20;;;;;;5114000;28;20458;-66
2021/10/20 02:01:14;;;;;;;4.73;3.37;;;16.80;78.40;;;;;;5113167;28;20443;-66
2021/10/20 02:03:42;;;;;;;3.33;2.60;;;16.80;78.10;;;;;;5113974;28;20446;-66
2021/10/20 02:06:11;;;;;;;4.83;3.10;;;16.80;78.40;;;;;;5113822;28;20462;-66
2021/10/20 02:08:38;;;;;;;9.80;3.17;;;16.80;78.70;;;;;;5113916;28;20447;-66
2021/10/20 02:11:05;;;;;;;6.60;3.00;;;16.80;78.80;;;;;;5113936;28;20439;-66
2021/10/20 02:13:33;;;;;;;5.17;2.67;;;16.70;78.70;;;;;;5113874;28;20450;-66
2021/10/20 02:16:03;;;;;;;8.10;3.47;;;16.70;79.00;;;;;;5113389;28;20485;-66
2021/10/20 02:18:29;;;;;;;5.80;3.07;;;16.70;79.10;;;;;;5113844;28;20467;-66
2021/10/20 02:20:56;;;;;;;5.33;3.10;;;16.70;79.20;;;;;;5113831;28;20442;-66
2021/10/20 02:23:24;;;;;;;4.33;3.37;;;16.70;79.30;;;;;;5113795;28;20803;-66
2021/10/20 02:25:50;;;;;;;3.47;3.17;;;16.70;79.50;;;;;;5113737;28;20459;-66
2021/10/20 02:28:17;;;;;;;5.50;2.90;;;16.60;79.30;;;;;;5113727;28;20447;-66
2021/10/20 02:30:45;;;;;;;4.10;3.33;;;16.60;79.30;;;;;;5113742;28;20516;-66
2021/10/20 02:33:12;;;;;;;5.30;2.90;;;16.60;79.70;;;;;;5113338;28;20450;-66
2021/10/20 02:35:39;;;;;;;7.00;3.70;;;16.60;79.70;;;;;;5113156;28;20493;-66
2021/10/20 02:38:06;;;;;;;6.53;2.80;;;16.60;80.00;;;;;;5113355;28;20445;-66
2021/10/20 02:40:32;;;;;;;4.90;3.00;;;16.60;79.90;;;;;;5113281;28;20453;-66
2021/10/20 02:42:59;;;;;;;3.90;3.47;;;16.60;80.00;;;;;;5113613;28;20444;-66
2021/10/20 02:45:26;;;;;;;3.80;3.40;;;16.50;80.00;;;;;;5113454;28;20812;-66
2021/10/20 02:47:54;;;;;;;8.07;3.40;;;16.50;80.10;;;;;;5113497;28;20453;-66
2021/10/20 02:50:22;;;;;;;4.63;3.40;;;16.50;80.30;;;;;;5113480;28;20815;-66
2021/10/20 02:52:49;;;;;;;5.40;3.60;;;16.50;80.50;;;;;;5113665;28;20507;-66
2021/10/20 02:55:16;;;;;;;6.03;3.60;;;16.50;80.80;;;;;;5113080;28;20470;-66
2021/10/20 02:57:42;;;;;;;3.77;3.37;;;16.50;80.70;;;;;;5113465;28;20450;-66
2021/10/20 03:00:10;;;;;;;5.90;3.37;;;16.50;80.80;;;;;;5113947;28;20454;-66
2021/10/20 03:02:37;;;;;;;3.80;3.23;;;16.50;80.80;;;;;;5113406;28;20450;-66
2021/10/20 03:05:06;;;;;;;5.40;3.70;;;16.50;80.80;;;;;;5113032;28;20524;-66
2021/10/20 03:07:34;;;;;;;7.33;3.77;;;16.50;81.00;;;;;;5113392;28;20438;-66
2021/10/20 03:10:01;;;;;;;5.50;3.80;;;16.50;81.20;;;;;;5113012;28;20481;-66
2021/10/20 03:12:28;;;;;;;6.17;3.90;;;16.50;81.40;;;;;;5115141;28;20447;-66
2021/10/20 03:14:55;;;;;;;4.90;3.70;;;16.50;81.50;;;;;;5116531;27;21015;-66
2021/10/20 03:17:24;;;;;;;4.77;3.40;;;16.50;81.40;;;;;;5116960;28;20427;-66
2021/10/20 03:19:51;;;;;;;7.53;4.30;;;16.50;81.50;;;;;;5116903;28;20449;-66
2021/10/20 03:22:19;;;;;;;6.33;3.70;;;16.50;81.50;;;;;;5116836;28;20446;-66
2021/10/20 03:24:45;;;;;;;5.83;3.57;;;16.50;81.40;;;;;;5116753;28;20459;-66
2021/10/20 03:27:12;;;;;;;3.90;3.57;;;16.60;81.60;;;;;;5116750;28;20469;-66
2021/10/20 03:29:39;;;;;;;9.50;3.77;;;16.60;81.50;;;;;;5116376;27;20457;-66
2021/10/20 03:32:06;;;;;;;4.50;4.00;;;16.50;81.50;;;;;;5116347;28;20933;-66
2021/10/20 03:34:33;;;;;;;9.27;3.63;;;16.50;81.30;;;;;;5116118;28;20491;-66
2021/10/20 03:36:59;;;;;;;4.57;3.97;;;16.60;81.60;;;;;;5116545;28;20442;-66
2021/10/20 03:39:27;;;;;;;7.30;4.47;;;16.50;81.30;;;;;;5116488;28;20446;-66
2021/10/20 03:41:54;;;;;;;6.40;4.20;;;16.50;81.40;;;;;;5116140;28;20959;-66
2021/10/20 03:44:21;;;;;;;5.47;3.50;;;16.50;81.30;;;;;;5116329;28;20457;-66
2021/10/20 03:46:47;;;;;;;5.00;4.20;;;16.60;81.70;;;;;;5116362;28;20806;-66
2021/10/20 03:49:14;;;;;;;4.60;3.53;;;16.60;81.30;;;;;;5116312;28;20458;-66
2021/10/20 03:51:41;;;;;;;5.60;4.60;;;16.60;81.40;;;;;;5116259;28;20441;-66
2021/10/20 03:54:07;;;;;;;5.93;4.03;;;16.60;81.10;;;;;;5115858;28;20984;-66
2021/10/20 03:56:35;;;;;;;5.03;3.50;;;16.60;81.10;;;;;;5115784;28;20885;-66
2021/10/20 03:59:02;;;;;;;4.20;3.80;;;16.70;81.40;;;;;;5116098;28;20443;-66
2021/10/20 04:01:29;;;;;;;6.00;3.90;;;16.70;81.40;;;;;;5116060;28;20838;-66
2021/10/20 04:03:56;;;;;;;4.90;4.30;;;16.70;81.40;;;;;;5115753;28;20521;-66
2021/10/20 04:06:23;;;;;;;6.10;4.97;;;16.70;81.30;;;;;;5115875;28;20485;-66
2021/10/20 04:08:49;;;;;;;5.30;4.20;;;16.70;81.40;;;;;;5116405;28;20462;-66
2021/10/20 04:11:16;;;;;;;5.90;4.20;;;16.70;81.40;;;;;;5115895;27;20446;-66
2021/10/20 04:13:44;;;;;;;5.00;4.40;;;16.70;81.40;;;;;;5115483;28;20941;-66
2021/10/20 04:16:11;;;;;;;5.63;4.97;;;16.60;81.30;;;;;;5115631;28;20483;-66
2021/10/20 04:18:38;;;;;;;4.60;4.13;;;16.60;81.40;;;;;;5115852;27;20439;-66
2021/10/20 04:21:05;;;;;;;7.33;4.40;;;16.60;81.50;;;;;;5115471;28;20443;-66
2021/10/20 04:23:31;;;;;;;6.20;4.07;;;16.60;81.60;;;;;;5115188;28;20804;-66
2021/10/20 04:25:58;;;;;;;6.30;4.23;;;16.60;81.90;;;;;;5115219;28;20960;-66
2021/10/20 04:28:25;;;;;;;6.17;4.30;;;16.70;81.80;;;;;;5115522;28;20446;-66
2021/10/20 04:30:53;;;;;;;6.33;4.67;;;16.60;82.00;;;;;;5115497;28;20455;-66
2021/10/20 04:33:20;;;;;;;4.83;4.43;;;16.60;82.10;;;;;;5115423;28;20435;-66
2021/10/20 04:35:46;;;;;;;4.90;4.50;;;16.70;82.30;;;;;;5114832;28;20858;-66
2021/10/20 04:38:13;;;;;;;5.30;3.97;;;16.70;82.40;;;;;;5115376;28;20446;-66
2021/10/20 04:40:40;;;;;;;6.03;4.33;;;16.60;82.40;;;;;;5114952;27;20940;-66
2021/10/20 04:43:06;;;;;;;8.80;4.57;;;16.70;82.60;;;;;;5115255;28;20442;-66
2021/10/20 04:45:33;;;;;;;5.07;4.10;;;16.60;82.50;;;;;;5115075;28;20545;-66
2021/10/20 04:48:01;;;;;;;5.23;4.40;;;16.60;82.70;;;;;;5114815;27;20454;-66
2021/10/20 04:50:28;;;;;;;5.60;4.60;;;16.60;82.90;;;;;;5115082;28;20454;-66
2021/10/20 04:52:55;;;;;;;11.13;4.90;;;16.60;83.00;;;;;;5114774;28;20900;-66
2021/10/20 04:55:22;;;;;;;5.00;3.80;;;16.60;83.30;;;;;;5114856;28;20487;-66
2021/10/20 04:57:49;;;;;;;9.90;5.40;;;16.60;83.30;;;;;;5114719;28;20813;-66
2021/10/20 05:00:17;;;;;;;4.67;4.27;;;16.60;83.50;;;;;;5114958;28;20851;-65
2021/10/20 05:02:43;;;;;;;9.00;4.90;;;16.60;83.50;;;;;;5114871;28;20439;-65
2021/10/20 05:05:12;;;;;;;5.13;4.70;;;16.60;83.60;;;;;;5114713;28;20615;-66
2021/10/20 05:07:46;;;;;;;4.60;4.20;;;16.60;83.80;;;;;;5114462;28;20977;-65
2021/10/20 05:10:13;;;;;;;10.00;5.00;;;16.60;83.90;;;;;;5114724;28;20437;-66
2021/10/20 05:12:40;;;;;;;5.72;5.10;;;16.60;84.00;;;;;;5114441;28;20431;-66
2021/10/20 05:15:07;;;;;;;5.57;4.90;;;16.60;84.00;;;;;;5114222;28;20659;-66
2021/10/20 05:17:34;;;;;;;7.20;4.37;;;16.60;84.30;;;;;;5114608;28;20446;-65
2021/10/20 05:20:01;;;;;;;9.53;4.80;;;16.50;84.40;;;;;;5114507;28;20439;-65
2021/10/20 05:22:29;;;;;;;5.13;4.60;;;16.50;84.70;;;;;;5114550;28;20458;-66
2021/10/20 05:24:56;;;;;;;5.60;5.10;;;16.50;84.90;;;;;;5114099;28;20969;-66
2021/10/20 05:27:22;;;;;;;5.87;5.27;;;16.50;84.90;;;;;;5114113;28;20807;-66
2021/10/20 05:29:49;;;;;;;5.10;4.60;;;16.50;84.80;;;;;;5114532;28;20434;-66
2021/10/20 05:32:16;;;;;;;6.37;5.13;;;16.50;84.90;;;;;;5114387;28;20443;-66
2021/10/20 05:34:43;;;;;;;5.27;4.63;;;16.40;84.70;;;;;;5113212;28;20478;-66
2021/10/20 05:37:09;;;;;;;6.07;4.90;;;16.40;85.10;;;;;;5114143;28;20449;-66
2021/10/20 05:39:37;;;;;;;6.40;4.70;;;16.50;85.20;;;;;;5114273;28;20470;-66
2021/10/20 05:42:05;;;;;;;5.87;4.43;;;16.50;85.00;;;;;;5114279;28;20446;-66
2021/10/20 05:44:31;;;;;;;6.10;4.90;;;16.50;84.90;;;;;;5114141;28;20469;-66
2021/10/20 05:46:58;;;;;;;4.90;4.50;;;16.50;84.90;;;;;;5114033;28;20438;-66
2021/10/20 05:49:25;;;;;;;5.17;4.70;;;16.50;85.00;;;;;;5114128;28;20212;-66
2021/10/20 05:51:51;;;;;;;6.30;5.00;;;16.50;85.00;;;;;;5114048;28;20447;-66
2021/10/20 05:54:18;;;;;;;6.63;5.27;;;16.50;85.00;;;;;;5114059;28;20781;-66
2021/10/20 05:56:46;;;;;;;7.40;4.77;;;16.50;85.00;;;;;;5113955;28;20487;-66
2021/10/20 05:59:13;;;;;;;5.20;4.30;;;16.50;85.00;;;;;;5113692;28;20978;-66
2021/10/20 06:01:40;;;;;;;4.93;4.43;;;16.50;84.90;;;;;;5113626;28;20447;-66
2021/10/20 06:04:07;;;;;;;4.97;4.53;;;16.50;85.00;;;;;;5113891;28;20447;-67
2021/10/20 06:06:34;;;;;;;5.83;4.27;;;16.50;85.20;;;;;;5113623;28;20443;-66
2021/10/20 06:09:00;;;;;;;6.20;4.73;;;16.50;85.30;;;;;;5113904;28;20454;-66
2021/10/20 06:11:27;;;;;;;7.80;4.30;;;16.40;85.30;;;;;;5113863;28;20447;-67
2021/10/20 06:13:55;;;;;;;5.27;4.77;;;16.40;85.60;;;;;;5113906;28;20423;-66
2021/10/20 06:16:22;;;;;;;5.93;4.40;;;16.40;85.60;;;;;;5113720;28;20486;-67
2021/10/20 06:18:48;;;;;;;7.20;4.37;;;16.40;85.70;;;;;;5113847;28;20810;-66
2021/10/20 06:21:15;;;;;;;5.70;4.80;;;16.40;85.80;;;;;;5113805;28;20450;-66
2021/10/20 06:23:42;;;;;;;7.13;4.40;;;16.40;85.80;;;;;;5113760;28;20480;-67
2021/10/20 06:26:09;;;;;;;8.30;6.30;;;16.40;85.60;;;;;;5113393;28;20466;-66
2021/10/20 06:28:36;;;;;;;5.17;4.67;;;16.40;85.60;;;;;;5113734;28;20454;-66
2021/10/20 06:31:04;;;;;;;4.87;4.47;;;16.40;85.50;;;;;;5113742;28;20446;-66
2021/10/20 06:33:31;;;;;;;4.80;4.50;;;16.40;85.30;;;;;;5113549;28;20427;-67
2021/10/20 06:36:00;;;;;;;7.87;5.10;;;16.40;85.30;;;;;;5113565;28;20482;-66
2021/10/20 06:38:27;;;;;;;5.60;5.10;;;16.30;85.20;;;;;;5113423;28;20893;-66
2021/10/20 06:40:53;;;;;;;5.93;4.50;;;16.30;85.50;;;;;;5113363;28;20430;-66
2021/10/20 06:43:20;;;;;;;8.50;5.60;;;16.30;85.50;;;;;;5113625;28;20447;-66
2021/10/20 06:45:47;;;;;;;5.90;5.30;;;16.30;85.50;;;;;;5114003;28;20964;-66
2021/10/20 06:48:15;;;;;;;6.47;5.30;;;16.30;85.60;;;;;;5117489;28;20450;-66
2021/10/20 06:50:42;;;;;;;4.97;4.57;;;16.40;85.80;;;;;;5117573;28;20438;-66
2021/10/20 06:53:08;;;;;;;5.83;5.10;;;16.40;85.80;;;;;;5117165;28;20427;-66
2021/10/20 06:55:35;;;;;;;5.03;4.53;;;16.40;85.80;;;;;;5117344;27;20485;-66
2021/10/20 06:58:02;;;;;;;8.20;5.07;;;16.40;85.80;;;;;;5117355;28;20438;-67
2021/10/20 07:00:28;;;;;;;5.53;4.53;;;16.50;85.90;;;;;;5116959;28;20834;-66
2021/10/20 07:02:55;;;;;;;6.60;4.83;;;16.50;86.00;;;;;;5117212;28;20453;-66
2021/10/20 07:05:23;;;;;;;7.43;4.90;;;16.50;86.00;;;;;;5117086;28;20465;-66
2021/10/20 07:07:50;;;;;;;14.40;6.63;;;16.50;86.00;;;;;;5117139;28;20607;-66
2021/10/20 07:10:17;;;;;;;6.83;4.70;;;16.60;86.20;;;;;;5116766;28;20936;-66
2021/10/20 07:15:11;;;;;;;6.43;5.00;;;16.60;86.30;;;;;;5097625;28;20468;-85
2021/10/20 07:17:39;;;;;;;8.10;5.00;;;16.70;86.40;;;;;;5094553;28;20557;-85
2021/10/20 07:20:07;;;;;;;9.47;5.00;;;16.70;86.40;;;;;;5082725;28;20436;-85
2021/10/20 07:22:38;;;;;;;6.53;4.67;;;16.70;86.80;;;;;;5082317;28;20432;-84
2021/10/20 07:25:07;;;;;;;6.23;5.40;;;16.80;87.10;;;;;;5078601;28;20499;-83
2021/10/20 07:27:34;;;;;;;5.47;4.93;;;16.80;87.10;;;;;;5077857;28;20451;-82
2021/10/20 07:30:01;;;;;;;6.37;5.33;;;16.90;87.50;;;;;;5080211;28;20449;-83
2021/10/20 07:32:27;;;;;;;7.13;4.80;;;16.90;87.90;;;;;;5078614;28;20539;-83
2021/10/20 07:34:54;;;;;;;6.77;6.17;;;16.90;88.00;;;;;;5079074;28;20475;-83
2021/10/20 07:37:21;;;;;;;8.23;5.70;;;17.00;88.20;;;;;;5078869;28;20551;-86
2021/10/20 07:39:49;;;;;;;21.10;5.73;;;17.10;88.30;;;;;;5078397;28;20445;-85
2021/10/20 07:42:16;;;;;;;6.93;5.27;;;17.20;87.90;;;;;;5078921;28;20922;-85
2021/10/20 07:44:45;;;;;;;5.70;5.20;;;17.30;87.30;;;;;;5080125;28;20486;-85
2021/10/20 07:47:11;;;;;;;7.40;5.00;;;17.40;87.40;;;;;;5081383;28;20510;-85
2021/10/20 07:49:38;;;;;;;6.63;5.30;;;17.50;86.90;;;;;;5080105;28;20448;-84
2021/10/20 07:52:05;;;;;;;5.67;4.50;;;17.60;86.30;;;;;;5080034;28;20961;-85
2021/10/20 07:54:32;;;;;;;5.73;4.60;;;17.60;86.00;;;;;;5079090;28;20468;-84
2021/10/20 07:57:00;;;;;;;6.97;4.60;;;17.70;85.50;;;;;;5080046;28;20476;-85
2021/10/20 07:59:26;;;;;;;10.40;6.03;;;17.80;85.40;;;;;;5080417;28;20433;-85
2021/10/20 08:01:53;;;;;;;8.10;4.67;;;17.80;85.00;;;;;;5079307;28;20453;-86
2021/10/20 08:04:20;;;;;;;7.10;5.40;;;17.80;84.80;;;;;;5079254;28;20499;-86
2021/10/20 08:06:47;;;;;;;7.73;4.93;;;17.90;84.50;;;;;;5080289;28;20449;-86
2021/10/20 08:09:14;;;;;;;5.30;4.77;;;17.90;84.50;;;;;;5080333;28;20801;-86
2021/10/20 08:11:41;;;;;;;4.97;4.57;;;17.90;84.50;;;;;;5080444;28;20454;-85
2021/10/20 08:14:09;;;;;;;5.90;4.53;;;17.90;84.70;;;;;;5082028;28;20456;-84
2021/10/20 08:16:35;;;;;;;6.23;5.60;;;17.90;84.70;;;;;;5082816;28;20495;-82
2021/10/20 08:19:02;;;;;;;5.67;5.07;;;17.90;84.70;;;;;;5082155;28;20452;-86
2021/10/20 08:21:29;;;;;;;5.17;4.67;;;17.90;84.60;;;;;;5083638;28;20445;-86
2021/10/20 08:23:56;;;;;;;5.63;5.13;;;18.00;85.30;;;;;;5082221;28;20475;-86
2021/10/20 08:26:23;;;;;;;11.10;5.40;;;18.00;83.90;;;;;;5080971;28;20433;-85
2021/10/20 08:28:50;;;;;;;5.20;4.70;;;17.90;83.60;;;;;;5080396;28;20417;-84
2021/10/20 08:31:18;;;;;;;8.07;5.43;;;18.00;83.60;;;;;;5084603;28;20433;-84
2021/10/20 08:33:45;;;;;;;5.97;5.13;;;18.00;83.30;;;;;;5082472;28;20432;-84
2021/10/20 08:36:12;;;;;;;6.00;4.30;;;18.00;83.10;;;;;;5084780;28;20472;-84
2021/10/20 08:38:39;;;;;;;4.67;4.17;;;18.00;83.10;;;;;;5082242;28;20445;-86
2021/10/20 08:41:07;;;;;;;6.80;5.07;;;18.00;83.00;;;;;;5080710;28;20449;-87
2021/10/20 08:43:35;;;;;;;6.00;5.50;;;18.10;82.60;;;;;;5080471;28;20527;-87
2021/10/20 08:46:02;;;;;;;8.07;5.17;;;18.20;82.60;;;;;;5081601;28;20475;-87
2021/10/20 08:48:32;;;;;;;8.30;4.70;;;18.30;83.00;;;;;;5083111;28;20428;-84
2021/10/20 08:51:02;;;;;;;9.23;5.20;;;18.30;81.50;;;;;;5088709;28;20765;-84
2021/10/20 08:53:29;;;;;;;8.67;4.40;;;18.30;81.30;;;;;;5079279;28;20433;-84
2021/10/20 08:55:56;;;;;;;9.13;4.80;;;18.30;80.90;;;;;;5079222;28;20453;-83
2021/10/20 08:58:24;;;;;;;8.03;4.93;;;18.30;81.10;;;;;;5078814;28;20429;-85
2021/10/20 09:11:33;;;;;;;7.90;5.37;;;18.60;79.50;;;;;;5078865;28;20384;-85
2021/10/20 09:14:01;;;;;;;5.20;4.67;;;18.70;79.60;;;;;;5078636;28;20504;-85
2021/10/20 09:16:28;;;;;;;5.33;4.73;;;18.70;79.90;;;;;;5080114;28;20481;-86
2021/10/20 09:18:57;;;;;;;6.63;5.40;;;18.80;80.10;;;;;;5080013;28;20456;-86
2021/10/20 09:21:24;;;;;;;6.63;6.03;;;18.90;79.60;;;;;;5081104;28;20805;-85
2021/10/20 09:23:51;;;;;;;11.23;5.80;;;18.90;79.20;;;;;;5081019;28;20902;-85
2021/10/20 09:26:20;;;;;;;9.00;5.43;;;19.00;78.30;;;;;;5080175;28;20414;-84
2021/10/20 09:28:48;;;;;;;6.90;6.10;;;19.00;77.90;;;;;;5078709;28;20479;-84
2021/10/20 09:31:21;;;;;;;5.23;4.80;;;19.00;78.30;;;;;;5078039;28;20405;-84
2021/10/20 09:33:47;;;;;;;5.83;5.20;;;19.00;77.60;;;;;;5078700;28;20435;-84
2021/10/20 09:36:14;;;;;;;6.67;6.07;;;19.00;77.50;;;;;;5080202;28;20429;-85
2021/10/20 09:38:45;;;;;;;6.17;5.20;;;19.00;78.00;;;;;;5080276;28;20607;-85
2021/10/20 09:41:13;;;;;;;5.77;5.27;;;19.10;78.20;;;;;;5080665;28;20448;-86
2021/10/20 09:43:41;;;;;;;6.90;5.77;;;19.10;77.90;;;;;;5082305;28;20444;-86
2021/10/20 09:46:10;;;;;;;5.43;4.93;;;19.20;77.60;;;;;;5082373;28;20440;-86
2021/10/20 09:48:41;;;;;;;5.57;5.00;;;19.40;77.50;;;;;;5082238;28;20444;-86
2021/10/20 09:51:10;;;;;;;9.20;6.47;;;19.50;76.30;;;;;;5082975;28;20487;-85
2021/10/20 09:53:38;;;;;;;5.43;4.70;;;19.60;77.20;;;;;;5083331;28;20410;-86
2021/10/20 09:56:21;;;;;;;7.37;5.60;;;19.60;76.30;;;;;;5083819;28;20461;-84
2021/10/20 09:58:49;;;;;;;6.23;5.20;;;19.60;76.90;;;;;;5083671;28;20437;-86
2021/10/20 10:01:22;;;;;;;6.03;5.43;;;19.60;76.80;;;;;;5085426;28;20813;-86
2021/10/20 10:03:51;;;;;;;8.40;6.47;;;19.60;76.90;;;;;;5086749;28;20440;-86
2021/10/20 10:06:19;;;;;;;6.43;5.67;;;19.60;77.10;;;;;;5094622;28;20433;-85
2021/10/20 10:08:46;;;;;;;6.27;5.73;;;19.50;77.20;;;;;;5095558;28;20877;-85
2021/10/20 10:11:13;;;;;;;7.90;5.33;;;19.40;77.90;;;;;;5078729;28;20910;-86
2021/10/20 10:13:46;;;;;;;11.03;5.90;;;19.30;78.30;;;;;;5077367;28;20451;-86
2021/10/20 10:16:16;;;;;;;7.63;5.20;;;19.20;78.40;;;;;;5078158;28;20457;-87
2021/10/20 10:18:44;;;;;;;6.27;5.70;;;19.10;79.10;;;;;;5076753;28;20960;-86
2021/10/20 10:21:34;;;;;;;6.37;5.77;;;19.10;79.20;;;;;;5079735;28;20445;-86
2021/10/20 10:24:03;;;;;;;6.20;5.50;;;19.10;79.70;;;;;;5082297;28;20433;-85
2021/10/20 10:26:35;;;;;;;6.50;5.23;;;19.00;79.70;;;;;;5082126;28;20925;-85
2021/10/20 10:29:07;;;;;;;7.17;5.57;;;19.10;80.00;;;;;;5083102;28;20516;-84
2021/10/20 10:31:36;;;;;;;10.00;5.10;;;19.10;79.60;;;;;;5083661;28;20528;-83
2021/10/20 10:34:04;;;;;;;5.80;5.30;;;19.10;79.60;;;;;;5079953;28;20833;-83
2021/10/20 10:36:31;;;;;;;7.43;5.50;;;19.00;79.60;;;;;;5079756;28;20452;-83
2021/10/20 10:39:06;;;;;;;5.70;4.73;;;19.10;79.30;;;;;;5079739;28;20439;-83
2021/10/20 10:41:35;;;;;;;9.67;5.53;;;19.10;79.20;;;;;;5079624;28;20425;-83
2021/10/20 10:44:20;;;;;;;7.00;4.90;;;19.20;80.10;;;;;;5079649;28;21302;-83
2021/10/20 10:46:56;;;;;;;5.40;4.90;;;19.20;79.40;;;;;;5080432;28;20926;-83
2021/10/20 10:49:28;;;;;;;8.63;5.80;;;19.10;79.50;;;;;;5080606;28;20409;-83
2021/10/20 10:52:20;;;;;;;7.80;5.33;;;19.00;80.00;;;;;;5079895;28;20531;-83
2021/10/20 10:55:07;;;;;;;9.70;5.57;;;19.00;80.70;;;;;;5061315;28;20473;-83
2021/10/20 10:57:40;;;;;;;6.00;4.50;;;18.90;82.10;;;;;;5080488;28;20479;-83
2021/10/20 11:00:11;;;;;;;8.70;5.20;;;18.90;82.70;;;;;;5083701;28;20441;-84
2021/10/20 11:02:48;;;;;;;9.07;5.00;;;18.80;82.50;;;;;;5085034;28;20782;-85
2021/10/20 11:05:18;;;;;;;5.20;4.37;;;18.70;83.10;;;;;;5083167;28;20476;-83
2021/10/20 11:07:46;;;;;;;6.03;4.93;;;18.70;83.80;;;;;;5081991;28;20416;-84
2021/10/20 11:10:14;;;;;;;6.30;5.70;;;18.60;83.50;;;;;;5081873;28;20428;-83
2021/10/20 11:12:41;;;;;;;11.50;5.90;;;18.50;83.70;;;;;;5083026;28;20817;-85
2021/10/20 11:15:11;;;;;;;10.30;6.17;;;18.50;83.70;;;;;;5082189;28;20475;-84
2021/10/20 11:17:39;;;;;;;8.40;6.70;;;18.50;84.40;;;;;;5083019;28;20515;-84
2021/10/20 11:20:08;;;;;;;5.73;5.10;;;18.50;84.50;;;;;;5083302;28;20502;-85
2021/10/20 11:22:38;;;;;;;7.63;5.07;;;18.50;84.30;;;;;;5082918;28;20443;-84
2021/10/20 11:25:07;;;;;;;9.23;5.47;;;18.50;84.90;;;;;;5082124;28;20933;-85
2021/10/20 11:27:35;;;;;;;7.73;6.97;;;18.50;85.10;;;;;;5081730;28;20429;-87
2021/10/20 11:30:02;;;;;;;7.10;6.07;;;18.50;84.70;;;;;;5081149;28;20461;-86
2021/10/20 11:32:29;;;;;;;10.13;6.40;;;18.50;84.30;;;;;;5080543;28;20855;-86
2021/10/20 11:34:56;;;;;;;8.27;5.80;;;18.60;84.70;;;;;;5081882;28;20475;-87
2021/10/20 11:37:25;;;;;;;5.87;5.20;;;18.60;84.70;;;;;;5083279;28;20475;-86
2021/10/20 11:39:56;;;;;;;11.07;5.50;;;18.60;83.60;;;;;;5082346;28;20449;-85
2021/10/20 11:42:24;;;;;;;12.03;6.50;;;18.70;84.30;;;;;;5083117;28;20433;-84
2021/10/20 11:44:52;;;;;;;16.50;6.90;;;18.70;83.80;;;;;;5079915;28;21043;-83
2021/10/20 11:47:21;;;;;;;7.47;5.87;;;18.80;83.40;;;;;;5080482;28;20929;-84
2021/10/20 11:49:50;;;;;;;8.33;6.00;;;18.80;83.50;;;;;;5080545;28;20424;-84
2021/10/20 11:52:18;;;;;;;11.30;6.07;;;19.00;83.00;;;;;;5082356;28;20493;-85
2021/10/20 11:54:46;;;;;;;10.90;6.50;;;19.00;82.20;;;;;;5082460;28;20471;-86
2021/10/20 11:57:16;;;;;;;18.93;6.73;;;19.00;82.00;;;;;;5086977;28;20464;-86
2021/10/20 11:59:43;;;;;;;11.90;6.57;;;19.00;82.30;;;;;;5086816;28;20433;-86
2021/10/20 12:02:12;;;;;;;9.23;5.80;;;19.10;82.70;;;;;;5083495;28;20456;-86
2021/10/20 12:04:40;;;;;;;10.80;7.23;;;19.00;82.50;;;;;;5082578;28;20476;-86
2021/10/20 12:07:09;;;;;;;10.30;6.00;;;19.00;82.10;;;;;;5085907;28;20870;-85
2021/10/20 12:09:40;;;;;;;11.90;7.27;;;19.00;83.00;;;;;;5086712;28;20405;-85
2021/10/20 12:12:07;;;;;;;12.47;6.60;;;19.00;83.00;;;;;;5088233;28;20433;-86
2021/10/20 12:14:39;;;;;;;6.50;5.87;;;19.00;83.60;;;;;;5084989;28;20483;-85
2021/10/20 12:17:09;;;;;;;15.20;6.47;;;19.00;83.10;;;;;;5080821;28;20985;-86
2021/10/20 12:19:38;;;;;;;7.80;6.23;;;19.00;82.70;;;;;;5080582;28;20432;-85
2021/10/20 12:22:07;;;;;;;18.33;5.80;;;18.90;83.10;;;;;;5080333;28;20447;-84
2021/10/20 12:34:49;;;;;;;9.07;6.17;;;18.80;84.10;;;;;;4979942;28;20525;-86
2021/10/20 12:37:17;;;;;;;7.97;6.67;;;18.80;83.70;;;;;;4980064;28;20469;-87
2021/10/20 12:39:47;;;;;;;11.00;6.37;;;18.70;84.10;;;;;;5065773;28;20460;-86
2021/10/20 12:42:15;;;;;;;11.80;6.40;;;18.70;84.30;;;;;;5080873;28;20875;-86
2021/10/20 12:44:42;;;;;;;9.40;6.40;;;18.60;84.60;;;;;;5078990;28;20966;-87
2021/10/20 12:47:10;;;;;;;8.17;5.50;;;18.50;85.00;;;;;;5082113;28;20437;-85
2021/10/20 12:49:38;;;;;;;11.47;6.37;;;18.50;85.60;;;;;;5079683;28;20456;-87
2021/10/20 12:52:08;;;;;;;11.50;7.10;;;18.50;86.00;;;;;;5081049;28;20441;-87
2021/10/20 12:54:35;;;;;;;11.77;5.83;;;18.50;86.30;;;;;;5083003;28;20461;-86
2021/10/20 12:57:02;;;;;;;10.90;5.50;;;18.60;86.30;;;;;;5091099;28;20532;-86
2021/10/20 12:59:30;;;;;;;10.53;5.90;;;18.70;85.40;;;;;;5099154;28;20420;-84
2021/10/20 13:01:58;;;;;;;11.07;5.60;;;18.80;85.20;;;;;;5083571;28;20429;-84
2021/10/20 13:04:26;;;;;;;8.90;6.00;;;18.90;85.00;;;;;;5081294;28;20460;-84
2021/10/20 13:06:54;;;;;;;10.13;6.03;;;18.90;84.50;;;;;;5081861;28;20417;-84
2021/10/20 13:09:21;;;;;;;10.33;5.80;;;18.90;84.20;;;;;;5081341;28;20460;-84
2021/10/20 13:11:48;;;;;;;8.90;5.73;;;19.00;84.60;;;;;;5080691;28;20445;-84